sensor_id;sensor_type;location;lat;lon;timestamp;P1;durP1;ratioP1;P2;durP2;ratioP2
47894;SDS011;33653;52.302;8.134;2022-07-23T00:02:17;3.00;;;2.05;;
47894;SDS011;33653;52.302;8.134;2022-07-23T00:04:46;3.65;;;1.98;;
47894;SDS011;33653;52.302;8.134;2022-07-23T00:07:14;6.68;;;2.20;;
47894;SDS011;33653;52.302;8.134;2022-07-23T00:09:42;4.40;;;1.92;;
47894;SDS011;33653;52.302;8.134;2022-07-23T00:12:11;2.28;;;1.67;;
47894;SDS011;33653;52.302;8.134;2022-07-23T00:14:39;9.05;;;1.90;;
47894;SDS011;33653;52.302;8.134;2022-07-23T00:17:07;3.30;;;2.03;;
47894;SDS011;33653;52.302;8.134;2022-07-23T00:19:35;3.17;;;2.10;;
47894;SDS011;33653;52.302;8.134;2022-07-23T00:24:37;8.65;;;2.40;;
47894;SDS011;33653;52.302;8.134;2022-07-23T00:27:05;4.72;;;2.45;;
47894;SDS011;33653;52.302;8.134;2022-07-23T00:29:33;3.08;;;2.17;;
47894;SDS011;33653;52.302;8.134;2022-07-23T00:32:02;2.03;;;1.83;;
47894;SDS011;33653;52.302;8.134;2022-07-23T00:34:30;3.30;;;2.17;;
47894;SDS011;33653;52.302;8.134;2022-07-23T00:36:59;2.83;;;2.20;;
47894;SDS011;33653;52.302;8.134;2022-07-23T00:39:31;5.70;;;2.75;;
47894;SDS011;33653;52.302;8.134;2022-07-23T00:41:59;2.75;;;1.90;;
47894;SDS011;33653;52.302;8.134;2022-07-23T00:44:27;2.72;;;2.30;;
47894;SDS011;33653;52.302;8.134;2022-07-23T00:46:57;3.10;;;1.85;;
47894;SDS011;33653;52.302;8.134;2022-07-23T00:49:27;3.58;;;2.70;;
47894;SDS011;33653;52.302;8.134;2022-07-23T00:54:28;2.33;;;1.90;;
47894;SDS011;33653;52.302;8.134;2022-07-23T00:56:56;2.67;;;2.00;;
47894;SDS011;33653;52.302;8.134;2022-07-23T00:59:24;3.70;;;2.35;;
47894;SDS011;33653;52.302;8.134;2022-07-23T01:01:53;4.30;;;2.00;;
47894;SDS011;33653;52.302;8.134;2022-07-23T01:04:21;3.20;;;2.38;;
47894;SDS011;33653;52.302;8.134;2022-07-23T01:06:49;4.30;;;2.33;;
47894;SDS011;33653;52.302;8.134;2022-07-23T01:09:18;3.03;;;2.10;;
47894;SDS011;33653;52.302;8.134;2022-07-23T01:11:46;5.05;;;2.47;;
47894;SDS011;33653;52.302;8.134;2022-07-23T01:14:16;2.65;;;2.20;;
47894;SDS011;33653;52.302;8.134;2022-07-23T01:16:47;4.40;;;2.03;;
47894;SDS011;33653;52.302;8.134;2022-07-23T01:19:16;2.78;;;2.22;;
47894;SDS011;33653;52.302;8.134;2022-07-23T01:21:47;3.58;;;2.40;;
47894;SDS011;33653;52.302;8.134;2022-07-23T01:24:18;3.22;;;2.10;;
47894;SDS011;33653;52.302;8.134;2022-07-23T01:26:57;4.30;;;2.38;;
47894;SDS011;33653;52.302;8.134;2022-07-23T01:29:26;4.53;;;2.50;;
47894;SDS011;33653;52.302;8.134;2022-07-23T01:31:56;2.50;;;1.85;;
47894;SDS011;33653;52.302;8.134;2022-07-23T01:34:25;3.83;;;1.83;;
47894;SDS011;33653;52.302;8.134;2022-07-23T01:36:53;7.22;;;2.67;;
47894;SDS011;33653;52.302;8.134;2022-07-23T01:39:22;8.80;;;2.63;;
47894;SDS011;33653;52.302;8.134;2022-07-23T01:41:51;4.53;;;2.60;;
47894;SDS011;33653;52.302;8.134;2022-07-23T01:44:20;2.72;;;1.98;;
47894;SDS011;33653;52.302;8.134;2022-07-23T01:46:49;2.38;;;2.05;;
47894;SDS011;33653;52.302;8.134;2022-07-23T01:49:18;5.28;;;2.47;;
47894;SDS011;33653;52.302;8.134;2022-07-23T01:52:07;4.63;;;2.92;;
47894;SDS011;33653;52.302;8.134;2022-07-23T01:57:17;2.42;;;1.88;;
47894;SDS011;33653;52.302;8.134;2022-07-23T01:59:45;2.97;;;2.20;;
47894;SDS011;33653;52.302;8.134;2022-07-23T02:02:13;6.95;;;2.50;;
47894;SDS011;33653;52.302;8.134;2022-07-23T02:04:42;3.45;;;2.38;;
47894;SDS011;33653;52.302;8.134;2022-07-23T02:07:10;4.82;;;2.88;;
47894;SDS011;33653;52.302;8.134;2022-07-23T02:09:39;3.97;;;2.50;;
47894;SDS011;33653;52.302;8.134;2022-07-23T02:12:07;2.58;;;2.25;;
47894;SDS011;33653;52.302;8.134;2022-07-23T02:14:35;3.40;;;2.40;;
47894;SDS011;33653;52.302;8.134;2022-07-23T02:17:05;7.90;;;2.58;;
47894;SDS011;33653;52.302;8.134;2022-07-23T02:19:35;2.40;;;2.05;;
47894;SDS011;33653;52.302;8.134;2022-07-23T02:22:03;6.70;;;2.67;;
47894;SDS011;33653;52.302;8.134;2022-07-23T02:24:31;3.50;;;2.58;;
47894;SDS011;33653;52.302;8.134;2022-07-23T02:27:00;1.98;;;1.70;;
47894;SDS011;33653;52.302;8.134;2022-07-23T02:29:28;3.45;;;2.45;;
47894;SDS011;33653;52.302;8.134;2022-07-23T02:31:56;4.05;;;1.85;;
47894;SDS011;33653;52.302;8.134;2022-07-23T02:34:25;8.68;;;1.80;;
47894;SDS011;33653;52.302;8.134;2022-07-23T02:36:54;6.30;;;2.63;;
47894;SDS011;33653;52.302;8.134;2022-07-23T02:39:24;6.32;;;2.35;;
47894;SDS011;33653;52.302;8.134;2022-07-23T02:41:52;4.05;;;2.35;;
47894;SDS011;33653;52.302;8.134;2022-07-23T02:44:21;3.42;;;2.35;;
47894;SDS011;33653;52.302;8.134;2022-07-23T02:46:52;5.10;;;2.67;;
47894;SDS011;33653;52.302;8.134;2022-07-23T02:49:20;4.18;;;2.50;;
47894;SDS011;33653;52.302;8.134;2022-07-23T02:51:51;2.80;;;2.25;;
47894;SDS011;33653;52.302;8.134;2022-07-23T02:54:19;1.88;;;1.50;;
47894;SDS011;33653;52.302;8.134;2022-07-23T02:56:47;4.13;;;2.50;;
47894;SDS011;33653;52.302;8.134;2022-07-23T02:59:18;7.13;;;2.63;;
47894;SDS011;33653;52.302;8.134;2022-07-23T03:01:47;5.82;;;2.20;;
47894;SDS011;33653;52.302;8.134;2022-07-23T03:04:16;2.22;;;1.70;;
47894;SDS011;33653;52.302;8.134;2022-07-23T03:06:45;2.90;;;2.25;;
47894;SDS011;33653;52.302;8.134;2022-07-23T03:09:13;3.60;;;2.55;;
47894;SDS011;33653;52.302;8.134;2022-07-23T03:11:42;3.53;;;2.47;;
47894;SDS011;33653;52.302;8.134;2022-07-23T03:14:10;4.28;;;2.75;;
47894;SDS011;33653;52.302;8.134;2022-07-23T03:16:40;4.40;;;2.03;;
47894;SDS011;33653;52.302;8.134;2022-07-23T03:19:09;3.92;;;2.58;;
47894;SDS011;33653;52.302;8.134;2022-07-23T03:21:37;3.45;;;2.50;;
47894;SDS011;33653;52.302;8.134;2022-07-23T03:24:08;2.42;;;2.15;;
47894;SDS011;33653;52.302;8.134;2022-07-23T03:26:37;5.07;;;2.40;;
47894;SDS011;33653;52.302;8.134;2022-07-23T03:29:05;10.07;;;2.10;;
47894;SDS011;33653;52.302;8.134;2022-07-23T03:31:33;4.03;;;2.20;;
47894;SDS011;33653;52.302;8.134;2022-07-23T03:34:02;3.15;;;1.98;;
47894;SDS011;33653;52.302;8.134;2022-07-23T03:36:30;2.80;;;2.30;;
47894;SDS011;33653;52.302;8.134;2022-07-23T03:38:59;4.65;;;2.70;;
47894;SDS011;33653;52.302;8.134;2022-07-23T03:41:28;2.95;;;2.40;;
47894;SDS011;33653;52.302;8.134;2022-07-23T03:43:57;3.55;;;2.10;;
47894;SDS011;33653;52.302;8.134;2022-07-23T03:46:26;4.57;;;2.85;;
47894;SDS011;33653;52.302;8.134;2022-07-23T03:48:54;3.22;;;2.53;;
47894;SDS011;33653;52.302;8.134;2022-07-23T03:51:25;4.70;;;2.65;;
47894;SDS011;33653;52.302;8.134;2022-07-23T03:53:53;3.47;;;2.55;;
47894;SDS011;33653;52.302;8.134;2022-07-23T03:56:22;5.03;;;2.60;;
47894;SDS011;33653;52.302;8.134;2022-07-23T03:58:50;3.88;;;2.78;;
47894;SDS011;33653;52.302;8.134;2022-07-23T04:01:19;4.70;;;3.05;;
47894;SDS011;33653;52.302;8.134;2022-07-23T04:03:47;5.05;;;2.65;;
47894;SDS011;33653;52.302;8.134;2022-07-23T04:06:16;2.60;;;2.10;;
47894;SDS011;33653;52.302;8.134;2022-07-23T04:08:45;3.78;;;2.58;;
47894;SDS011;33653;52.302;8.134;2022-07-23T04:11:14;3.38;;;2.50;;
47894;SDS011;33653;52.302;8.134;2022-07-23T04:13:42;4.43;;;2.95;;
47894;SDS011;33653;52.302;8.134;2022-07-23T04:16:11;3.95;;;2.20;;
47894;SDS011;33653;52.302;8.134;2022-07-23T04:18:40;5.55;;;2.65;;
47894;SDS011;33653;52.302;8.134;2022-07-23T04:21:17;5.72;;;2.97;;
47894;SDS011;33653;52.302;8.134;2022-07-23T04:23:46;4.32;;;2.65;;
47894;SDS011;33653;52.302;8.134;2022-07-23T04:26:15;4.82;;;2.80;;
47894;SDS011;33653;52.302;8.134;2022-07-23T04:28:46;5.22;;;2.40;;
47894;SDS011;33653;52.302;8.134;2022-07-23T04:31:14;4.18;;;2.70;;
47894;SDS011;33653;52.302;8.134;2022-07-23T04:33:43;3.60;;;2.83;;
47894;SDS011;33653;52.302;8.134;2022-07-23T04:36:11;3.65;;;2.78;;
47894;SDS011;33653;52.302;8.134;2022-07-23T04:38:39;5.80;;;2.85;;
47894;SDS011;33653;52.302;8.134;2022-07-23T04:41:08;3.10;;;2.55;;
47894;SDS011;33653;52.302;8.134;2022-07-23T04:43:38;3.20;;;2.40;;
47894;SDS011;33653;52.302;8.134;2022-07-23T04:46:06;5.40;;;2.72;;
47894;SDS011;33653;52.302;8.134;2022-07-23T04:48:42;7.72;;;3.17;;
47894;SDS011;33653;52.302;8.134;2022-07-23T04:51:11;6.60;;;2.55;;
47894;SDS011;33653;52.302;8.134;2022-07-23T04:53:39;4.00;;;2.75;;
47894;SDS011;33653;52.302;8.134;2022-07-23T04:56:08;5.45;;;2.70;;
47894;SDS011;33653;52.302;8.134;2022-07-23T04:58:36;3.60;;;2.38;;
47894;SDS011;33653;52.302;8.134;2022-07-23T05:01:05;3.75;;;2.67;;
47894;SDS011;33653;52.302;8.134;2022-07-23T05:03:39;5.03;;;3.67;;
47894;SDS011;33653;52.302;8.134;2022-07-23T05:06:07;6.53;;;3.53;;
47894;SDS011;33653;52.302;8.134;2022-07-23T05:08:37;5.07;;;2.88;;
47894;SDS011;33653;52.302;8.134;2022-07-23T05:11:05;4.22;;;2.92;;
47894;SDS011;33653;52.302;8.134;2022-07-23T05:13:39;4.30;;;2.67;;
47894;SDS011;33653;52.302;8.134;2022-07-23T05:16:11;6.35;;;3.47;;
47894;SDS011;33653;52.302;8.134;2022-07-23T05:18:43;5.22;;;3.05;;
47894;SDS011;33653;52.302;8.134;2022-07-23T05:21:11;3.35;;;2.60;;
47894;SDS011;33653;52.302;8.134;2022-07-23T05:23:47;4.05;;;2.85;;
47894;SDS011;33653;52.302;8.134;2022-07-23T05:26:16;4.53;;;2.95;;
47894;SDS011;33653;52.302;8.134;2022-07-23T05:28:46;4.20;;;2.83;;
47894;SDS011;33653;52.302;8.134;2022-07-23T05:31:17;8.68;;;3.20;;
47894;SDS011;33653;52.302;8.134;2022-07-23T05:33:59;6.13;;;3.58;;
47894;SDS011;33653;52.302;8.134;2022-07-23T05:36:27;5.95;;;3.30;;
47894;SDS011;33653;52.302;8.134;2022-07-23T05:38:57;5.35;;;3.05;;
47894;SDS011;33653;52.302;8.134;2022-07-23T05:43:56;5.30;;;3.78;;
47894;SDS011;33653;52.302;8.134;2022-07-23T05:46:26;7.55;;;4.28;;
47894;SDS011;33653;52.302;8.134;2022-07-23T05:48:58;6.22;;;3.65;;
47894;SDS011;33653;52.302;8.134;2022-07-23T05:52:03;6.60;;;3.80;;
47894;SDS011;33653;52.302;8.134;2022-07-23T05:55:05;9.45;;;4.40;;
47894;SDS011;33653;52.302;8.134;2022-07-23T05:57:35;8.30;;;4.95;;
47894;SDS011;33653;52.302;8.134;2022-07-23T06:00:04;7.82;;;4.68;;
47894;SDS011;33653;52.302;8.134;2022-07-23T06:02:39;8.75;;;5.28;;
47894;SDS011;33653;52.302;8.134;2022-07-23T06:08:03;7.05;;;3.90;;
47894;SDS011;33653;52.302;8.134;2022-07-23T06:10:31;5.40;;;3.40;;
47894;SDS011;33653;52.302;8.134;2022-07-23T06:13:00;5.55;;;3.72;;
47894;SDS011;33653;52.302;8.134;2022-07-23T06:18:23;7.53;;;3.83;;
47894;SDS011;33653;52.302;8.134;2022-07-23T06:20:53;4.68;;;3.80;;
47894;SDS011;33653;52.302;8.134;2022-07-23T06:23:27;5.05;;;3.40;;
47894;SDS011;33653;52.302;8.134;2022-07-23T06:25:55;4.47;;;2.70;;
47894;SDS011;33653;52.302;8.134;2022-07-23T06:28:23;5.05;;;3.20;;
47894;SDS011;33653;52.302;8.134;2022-07-23T06:30:52;5.70;;;2.80;;
47894;SDS011;33653;52.302;8.134;2022-07-23T06:33:23;6.75;;;3.70;;
47894;SDS011;33653;52.302;8.134;2022-07-23T06:35:51;6.05;;;3.65;;
47894;SDS011;33653;52.302;8.134;2022-07-23T06:38:30;6.20;;;3.97;;
47894;SDS011;33653;52.302;8.134;2022-07-23T06:41:00;6.38;;;3.92;;
47894;SDS011;33653;52.302;8.134;2022-07-23T06:43:34;6.57;;;3.97;;
47894;SDS011;33653;52.302;8.134;2022-07-23T06:46:04;5.82;;;3.97;;
47894;SDS011;33653;52.302;8.134;2022-07-23T06:48:39;8.73;;;4.13;;
47894;SDS011;33653;52.302;8.134;2022-07-23T06:51:08;7.03;;;4.10;;
47894;SDS011;33653;52.302;8.134;2022-07-23T06:53:36;6.43;;;4.30;;
47894;SDS011;33653;52.302;8.134;2022-07-23T06:56:04;5.60;;;3.60;;
47894;SDS011;33653;52.302;8.134;2022-07-23T07:01:30;10.10;;;2.83;;
47894;SDS011;33653;52.302;8.134;2022-07-23T07:03:59;6.15;;;3.10;;
47894;SDS011;33653;52.302;8.134;2022-07-23T07:06:36;7.18;;;3.35;;
47894;SDS011;33653;52.302;8.134;2022-07-23T07:14:33;3.95;;;2.53;;
47894;SDS011;33653;52.302;8.134;2022-07-23T07:17:01;4.93;;;2.50;;
47894;SDS011;33653;52.302;8.134;2022-07-23T07:19:29;3.90;;;2.30;;
47894;SDS011;33653;52.302;8.134;2022-07-23T07:21:59;3.15;;;2.35;;
47894;SDS011;33653;52.302;8.134;2022-07-23T07:24:28;2.75;;;2.47;;
47894;SDS011;33653;52.302;8.134;2022-07-23T07:27:02;4.45;;;2.53;;
47894;SDS011;33653;52.302;8.134;2022-07-23T07:29:31;2.40;;;2.20;;
47894;SDS011;33653;52.302;8.134;2022-07-23T07:31:59;3.25;;;2.05;;
47894;SDS011;33653;52.302;8.134;2022-07-23T07:34:27;5.35;;;2.65;;
47894;SDS011;33653;52.302;8.134;2022-07-23T07:36:59;3.65;;;2.50;;
47894;SDS011;33653;52.302;8.134;2022-07-23T07:39:27;3.00;;;2.05;;
47894;SDS011;33653;52.302;8.134;2022-07-23T07:41:56;3.03;;;2.00;;
47894;SDS011;33653;52.302;8.134;2022-07-23T07:44:24;4.25;;;2.58;;
47894;SDS011;33653;52.302;8.134;2022-07-23T07:46:54;3.85;;;2.40;;
47894;SDS011;33653;52.302;8.134;2022-07-23T07:49:23;3.47;;;2.33;;
47894;SDS011;33653;52.302;8.134;2022-07-23T07:51:52;4.30;;;2.05;;
47894;SDS011;33653;52.302;8.134;2022-07-23T07:54:20;2.88;;;2.17;;
47894;SDS011;33653;52.302;8.134;2022-07-23T07:56:49;5.47;;;2.05;;
47894;SDS011;33653;52.302;8.134;2022-07-23T07:59:17;3.50;;;2.10;;
47894;SDS011;33653;52.302;8.134;2022-07-23T08:01:46;3.42;;;2.35;;
47894;SDS011;33653;52.302;8.134;2022-07-23T08:04:14;4.78;;;1.90;;
47894;SDS011;33653;52.302;8.134;2022-07-23T08:06:42;3.65;;;2.08;;
47894;SDS011;33653;52.302;8.134;2022-07-23T08:09:10;3.30;;;1.70;;
47894;SDS011;33653;52.302;8.134;2022-07-23T08:11:39;2.50;;;2.03;;
47894;SDS011;33653;52.302;8.134;2022-07-23T08:14:07;4.85;;;1.75;;
47894;SDS011;33653;52.302;8.134;2022-07-23T08:16:36;5.55;;;1.75;;
47894;SDS011;33653;52.302;8.134;2022-07-23T08:19:25;1.83;;;1.48;;
47894;SDS011;33653;52.302;8.134;2022-07-23T08:21:53;2.17;;;1.75;;
47894;SDS011;33653;52.302;8.134;2022-07-23T08:24:22;2.55;;;1.65;;
47894;SDS011;33653;52.302;8.134;2022-07-23T08:26:50;2.42;;;1.95;;
47894;SDS011;33653;52.302;8.134;2022-07-23T08:29:18;3.78;;;1.73;;
47894;SDS011;33653;52.302;8.134;2022-07-23T08:32:06;3.13;;;1.70;;
47894;SDS011;33653;52.302;8.134;2022-07-23T08:34:54;2.97;;;1.88;;
47894;SDS011;33653;52.302;8.134;2022-07-23T08:37:28;1.55;;;1.20;;
47894;SDS011;33653;52.302;8.134;2022-07-23T08:39:56;1.38;;;1.20;;
47894;SDS011;33653;52.302;8.134;2022-07-23T08:42:25;3.67;;;1.38;;
47894;SDS011;33653;52.302;8.134;2022-07-23T08:44:54;1.85;;;1.40;;
47894;SDS011;33653;52.302;8.134;2022-07-23T08:50:30;1.92;;;1.52;;
47894;SDS011;33653;52.302;8.134;2022-07-23T08:52:58;5.45;;;1.58;;
47894;SDS011;33653;52.302;8.134;2022-07-23T08:55:27;5.43;;;1.50;;
47894;SDS011;33653;52.302;8.134;2022-07-23T08:57:55;1.65;;;1.40;;
47894;SDS011;33653;52.302;8.134;2022-07-23T09:00:26;2.63;;;1.67;;
47894;SDS011;33653;52.302;8.134;2022-07-23T09:05:55;3.35;;;1.50;;
47894;SDS011;33653;52.302;8.134;2022-07-23T09:08:39;2.03;;;1.48;;
47894;SDS011;33653;52.302;8.134;2022-07-23T09:11:15;1.42;;;1.10;;
47894;SDS011;33653;52.302;8.134;2022-07-23T09:13:53;1.50;;;1.13;;
47894;SDS011;33653;52.302;8.134;2022-07-23T09:16:30;1.33;;;1.10;;
47894;SDS011;33653;52.302;8.134;2022-07-23T09:19:02;2.03;;;1.35;;
47894;SDS011;33653;52.302;8.134;2022-07-23T09:21:34;1.40;;;1.15;;
47894;SDS011;33653;52.302;8.134;2022-07-23T09:26:52;1.95;;;1.23;;
47894;SDS011;33653;52.302;8.134;2022-07-23T09:29:25;1.20;;;1.10;;
47894;SDS011;33653;52.302;8.134;2022-07-23T09:32:01;1.67;;;1.58;;
47894;SDS011;33653;52.302;8.134;2022-07-23T09:34:35;2.00;;;1.52;;
47894;SDS011;33653;52.302;8.134;2022-07-23T09:37:13;1.95;;;1.30;;
47894;SDS011;33653;52.302;8.134;2022-07-23T09:39:47;2.28;;;1.50;;
47894;SDS011;33653;52.302;8.134;2022-07-23T09:42:23;1.60;;;1.50;;
47894;SDS011;33653;52.302;8.134;2022-07-23T09:44:53;2.22;;;1.38;;
47894;SDS011;33653;52.302;8.134;2022-07-23T09:47:25;2.75;;;1.50;;
47894;SDS011;33653;52.302;8.134;2022-07-23T09:50:06;1.40;;;1.10;;
47894;SDS011;33653;52.302;8.134;2022-07-23T09:52:43;1.33;;;1.23;;
47894;SDS011;33653;52.302;8.134;2022-07-23T09:55:16;3.20;;;1.10;;
47894;SDS011;33653;52.302;8.134;2022-07-23T09:57:47;2.10;;;1.77;;
47894;SDS011;33653;52.302;8.134;2022-07-23T10:00:21;1.10;;;1.00;;
47894;SDS011;33653;52.302;8.134;2022-07-23T10:02:55;1.63;;;1.20;;
47894;SDS011;33653;52.302;8.134;2022-07-23T10:05:28;2.85;;;1.20;;
47894;SDS011;33653;52.302;8.134;2022-07-23T10:14:33;2.33;;;1.10;;
47894;SDS011;33653;52.302;8.134;2022-07-23T10:20:15;1.08;;;0.95;;
47894;SDS011;33653;52.302;8.134;2022-07-23T10:22:58;2.35;;;1.60;;
47894;SDS011;33653;52.302;8.134;2022-07-23T10:29:13;0.85;;;0.82;;
47894;SDS011;33653;52.302;8.134;2022-07-23T10:35:59;1.67;;;0.90;;
47894;SDS011;33653;52.302;8.134;2022-07-23T10:39:14;3.05;;;0.90;;
47894;SDS011;33653;52.302;8.134;2022-07-23T10:41:47;1.13;;;0.80;;
47894;SDS011;33653;52.302;8.134;2022-07-23T10:44:16;0.75;;;0.60;;
47894;SDS011;33653;52.302;8.134;2022-07-23T10:46:53;1.48;;;0.85;;
47894;SDS011;33653;52.302;8.134;2022-07-23T10:54:48;0.90;;;0.82;;
47894;SDS011;33653;52.302;8.134;2022-07-23T10:57:46;4.70;;;0.80;;
47894;SDS011;33653;52.302;8.134;2022-07-23T11:00:27;0.85;;;0.80;;
47894;SDS011;33653;52.302;8.134;2022-07-23T11:03:02;2.25;;;1.70;;
47894;SDS011;33653;52.302;8.134;2022-07-23T11:13:47;1.08;;;0.70;;
47894;SDS011;33653;52.302;8.134;2022-07-23T11:19:21;0.80;;;0.80;;
47894;SDS011;33653;52.302;8.134;2022-07-23T11:21:51;1.48;;;0.70;;
47894;SDS011;33653;52.302;8.134;2022-07-23T11:24:23;1.02;;;0.77;;
47894;SDS011;33653;52.302;8.134;2022-07-23T11:26:54;1.10;;;0.77;;
47894;SDS011;33653;52.302;8.134;2022-07-23T11:29:38;1.70;;;0.77;;
47894;SDS011;33653;52.302;8.134;2022-07-23T11:32:24;0.80;;;0.70;;
47894;SDS011;33653;52.302;8.134;2022-07-23T11:40:50;0.70;;;0.70;;
47894;SDS011;33653;52.302;8.134;2022-07-23T11:43:22;1.63;;;0.55;;
47894;SDS011;33653;52.302;8.134;2022-07-23T11:45:52;1.05;;;0.60;;
47894;SDS011;33653;52.302;8.134;2022-07-23T11:48:26;0.80;;;0.77;;
47894;SDS011;33653;52.302;8.134;2022-07-23T11:50:57;1.75;;;0.85;;
47894;SDS011;33653;52.302;8.134;2022-07-23T11:53:27;2.88;;;0.70;;
47894;SDS011;33653;52.302;8.134;2022-07-23T11:56:07;0.60;;;0.60;;
47894;SDS011;33653;52.302;8.134;2022-07-23T11:58:53;1.05;;;0.70;;
47894;SDS011;33653;52.302;8.134;2022-07-23T12:01:23;1.23;;;0.60;;
47894;SDS011;33653;52.302;8.134;2022-07-23T12:03:52;2.05;;;0.68;;
47894;SDS011;33653;52.302;8.134;2022-07-23T12:06:20;0.70;;;0.70;;
47894;SDS011;33653;52.302;8.134;2022-07-23T12:08:49;1.10;;;0.82;;
47894;SDS011;33653;52.302;8.134;2022-07-23T12:11:17;1.40;;;0.68;;
47894;SDS011;33653;52.302;8.134;2022-07-23T12:13:55;0.98;;;0.68;;
47894;SDS011;33653;52.302;8.134;2022-07-23T12:16:24;1.67;;;0.60;;
47894;SDS011;33653;52.302;8.134;2022-07-23T12:18:53;1.13;;;0.88;;
47894;SDS011;33653;52.302;8.134;2022-07-23T12:21:22;0.55;;;0.52;;
47894;SDS011;33653;52.302;8.134;2022-07-23T12:23:51;0.88;;;0.70;;
47894;SDS011;33653;52.302;8.134;2022-07-23T12:26:19;0.60;;;0.60;;
47894;SDS011;33653;52.302;8.134;2022-07-23T12:28:51;0.75;;;0.75;;
47894;SDS011;33653;52.302;8.134;2022-07-23T12:31:25;0.70;;;0.60;;
47894;SDS011;33653;52.302;8.134;2022-07-23T12:33:56;2.30;;;0.60;;
47894;SDS011;33653;52.302;8.134;2022-07-23T12:39:30;0.40;;;0.40;;
47894;SDS011;33653;52.302;8.134;2022-07-23T12:41:59;0.30;;;0.30;;
47894;SDS011;33653;52.302;8.134;2022-07-23T12:44:27;3.20;;;0.90;;
47894;SDS011;33653;52.302;8.134;2022-07-23T12:46:55;1.30;;;0.47;;
47894;SDS011;33653;52.302;8.134;2022-07-23T12:49:26;0.85;;;0.60;;
47894;SDS011;33653;52.302;8.134;2022-07-23T12:51:56;0.73;;;0.50;;
47894;SDS011;33653;52.302;8.134;2022-07-23T12:54:28;0.52;;;0.50;;
47894;SDS011;33653;52.302;8.134;2022-07-23T12:56:56;0.50;;;0.45;;
47894;SDS011;33653;52.302;8.134;2022-07-23T12:59:25;2.15;;;0.60;;
47894;SDS011;33653;52.302;8.134;2022-07-23T13:01:59;0.38;;;0.38;;
47894;SDS011;33653;52.302;8.134;2022-07-23T13:07:22;0.80;;;0.75;;
47894;SDS011;33653;52.302;8.134;2022-07-23T13:09:51;0.50;;;0.50;;
47894;SDS011;33653;52.302;8.134;2022-07-23T13:14:56;1.63;;;0.60;;
47894;SDS011;33653;52.302;8.134;2022-07-23T13:17:25;2.10;;;0.52;;
47894;SDS011;33653;52.302;8.134;2022-07-23T13:19:53;1.40;;;0.57;;
47894;SDS011;33653;52.302;8.134;2022-07-23T13:22:22;1.42;;;0.70;;
47894;SDS011;33653;52.302;8.134;2022-07-23T13:24:50;1.05;;;0.60;;
47894;SDS011;33653;52.302;8.134;2022-07-23T13:27:19;0.73;;;0.43;;
47894;SDS011;33653;52.302;8.134;2022-07-23T13:29:47;0.63;;;0.50;;
47894;SDS011;33653;52.302;8.134;2022-07-23T13:32:16;0.67;;;0.60;;
47894;SDS011;33653;52.302;8.134;2022-07-23T13:34:49;0.93;;;0.70;;
47894;SDS011;33653;52.302;8.134;2022-07-23T13:37:17;0.95;;;0.60;;
47894;SDS011;33653;52.302;8.134;2022-07-23T13:39:49;1.45;;;0.45;;
47894;SDS011;33653;52.302;8.134;2022-07-23T13:42:17;0.52;;;0.52;;
47894;SDS011;33653;52.302;8.134;2022-07-23T13:44:48;1.67;;;0.80;;
47894;SDS011;33653;52.302;8.134;2022-07-23T13:47:17;1.60;;;0.65;;
47894;SDS011;33653;52.302;8.134;2022-07-23T13:49:45;1.08;;;0.45;;
47894;SDS011;33653;52.302;8.134;2022-07-23T13:52:14;1.35;;;0.63;;
47894;SDS011;33653;52.302;8.134;2022-07-23T13:54:43;1.08;;;0.50;;
47894;SDS011;33653;52.302;8.134;2022-07-23T14:00:07;2.40;;;0.80;;
47894;SDS011;33653;52.302;8.134;2022-07-23T14:02:59;0.80;;;0.70;;
47894;SDS011;33653;52.302;8.134;2022-07-23T14:05:27;0.68;;;0.52;;
47894;SDS011;33653;52.302;8.134;2022-07-23T14:07:56;2.38;;;0.75;;
47894;SDS011;33653;52.302;8.134;2022-07-23T14:13:19;1.50;;;0.80;;
47894;SDS011;33653;52.302;8.134;2022-07-23T14:16:04;0.88;;;0.60;;
47894;SDS011;33653;52.302;8.134;2022-07-23T14:18:33;1.75;;;0.60;;
47894;SDS011;33653;52.302;8.134;2022-07-23T14:21:02;0.70;;;0.70;;
47894;SDS011;33653;52.302;8.134;2022-07-23T14:23:33;1.90;;;0.75;;
47894;SDS011;33653;52.302;8.134;2022-07-23T14:26:01;1.02;;;0.50;;
47894;SDS011;33653;52.302;8.134;2022-07-23T14:28:32;1.13;;;0.52;;
47894;SDS011;33653;52.302;8.134;2022-07-23T14:31:02;1.42;;;0.77;;
47894;SDS011;33653;52.302;8.134;2022-07-23T14:33:31;1.38;;;0.80;;
47894;SDS011;33653;52.302;8.134;2022-07-23T14:36:00;2.22;;;1.10;;
47894;SDS011;33653;52.302;8.134;2022-07-23T14:38:29;1.20;;;0.90;;
47894;SDS011;33653;52.302;8.134;2022-07-23T14:40:58;3.55;;;2.28;;
47894;SDS011;33653;52.302;8.134;2022-07-23T14:43:26;2.22;;;1.55;;
47894;SDS011;33653;52.302;8.134;2022-07-23T14:45:55;0.90;;;0.70;;
47894;SDS011;33653;52.302;8.134;2022-07-23T14:48:23;1.02;;;0.57;;
47894;SDS011;33653;52.302;8.134;2022-07-23T14:50:52;1.55;;;0.70;;
47894;SDS011;33653;52.302;8.134;2022-07-23T14:53:20;1.05;;;0.65;;
47894;SDS011;33653;52.302;8.134;2022-07-23T14:55:51;0.60;;;0.60;;
47894;SDS011;33653;52.302;8.134;2022-07-23T15:00:50;1.67;;;0.70;;
47894;SDS011;33653;52.302;8.134;2022-07-23T15:03:18;1.88;;;0.85;;
47894;SDS011;33653;52.302;8.134;2022-07-23T15:05:47;0.65;;;0.50;;
47894;SDS011;33653;52.302;8.134;2022-07-23T15:08:15;1.08;;;0.75;;
47894;SDS011;33653;52.302;8.134;2022-07-23T15:10:49;2.35;;;0.80;;
47894;SDS011;33653;52.302;8.134;2022-07-23T15:13:18;1.00;;;0.80;;
47894;SDS011;33653;52.302;8.134;2022-07-23T15:15:46;0.93;;;0.80;;
47894;SDS011;33653;52.302;8.134;2022-07-23T15:18:22;2.22;;;0.60;;
47894;SDS011;33653;52.302;8.134;2022-07-23T15:20:50;0.52;;;0.52;;
47894;SDS011;33653;52.302;8.134;2022-07-23T15:23:19;0.90;;;0.65;;
47894;SDS011;33653;52.302;8.134;2022-07-23T15:25:47;2.78;;;0.70;;
47894;SDS011;33653;52.302;8.134;2022-07-23T15:30:48;0.88;;;0.60;;
47894;SDS011;33653;52.302;8.134;2022-07-23T15:33:20;0.63;;;0.57;;
47894;SDS011;33653;52.302;8.134;2022-07-23T15:35:52;0.68;;;0.63;;
47894;SDS011;33653;52.302;8.134;2022-07-23T15:38:22;0.90;;;0.52;;
47894;SDS011;33653;52.302;8.134;2022-07-23T15:43:22;0.90;;;0.80;;
47894;SDS011;33653;52.302;8.134;2022-07-23T15:45:52;0.80;;;0.43;;
47894;SDS011;33653;52.302;8.134;2022-07-23T15:48:21;1.80;;;0.90;;
47894;SDS011;33653;52.302;8.134;2022-07-23T15:50:50;0.40;;;0.40;;
47894;SDS011;33653;52.302;8.134;2022-07-23T15:53:18;1.00;;;0.50;;
47894;SDS011;33653;52.302;8.134;2022-07-23T15:56:03;1.50;;;0.90;;
47894;SDS011;33653;52.302;8.134;2022-07-23T15:58:54;4.10;;;0.90;;
47894;SDS011;33653;52.302;8.134;2022-07-23T16:04:17;0.77;;;0.50;;
47894;SDS011;33653;52.302;8.134;2022-07-23T16:06:45;1.10;;;0.57;;
47894;SDS011;33653;52.302;8.134;2022-07-23T16:09:14;0.47;;;0.47;;
47894;SDS011;33653;52.302;8.134;2022-07-23T16:11:45;0.50;;;0.50;;
47894;SDS011;33653;52.302;8.134;2022-07-23T16:14:14;0.70;;;0.57;;
47894;SDS011;33653;52.302;8.134;2022-07-23T16:16:42;1.83;;;0.60;;
47894;SDS011;33653;52.302;8.134;2022-07-23T16:19:11;0.55;;;0.40;;
47894;SDS011;33653;52.302;8.134;2022-07-23T16:21:39;1.65;;;0.60;;
47894;SDS011;33653;52.302;8.134;2022-07-23T16:24:07;0.68;;;0.50;;
47894;SDS011;33653;52.302;8.134;2022-07-23T16:26:36;0.43;;;0.43;;
47894;SDS011;33653;52.302;8.134;2022-07-23T16:29:04;3.88;;;2.17;;
47894;SDS011;33653;52.302;8.134;2022-07-23T16:31:33;1.70;;;0.85;;
47894;SDS011;33653;52.302;8.134;2022-07-23T16:34:01;0.50;;;0.45;;
47894;SDS011;33653;52.302;8.134;2022-07-23T16:36:30;1.50;;;0.50;;
47894;SDS011;33653;52.302;8.134;2022-07-23T16:39:01;0.60;;;0.50;;
47894;SDS011;33653;52.302;8.134;2022-07-23T16:41:32;3.75;;;0.70;;
47894;SDS011;33653;52.302;8.134;2022-07-23T16:44:01;1.17;;;0.57;;
47894;SDS011;33653;52.302;8.134;2022-07-23T16:49:23;1.27;;;0.68;;
47894;SDS011;33653;52.302;8.134;2022-07-23T16:51:52;0.98;;;0.68;;